Time;durP1;ratioP1;P1;durP2;ratioP2;P2;SDS_P1;SDS_P2;PMS_P1;PMS_P2;Temp;Humidity;BMP_temperature;BMP_pressure;BME280_temperature;BME280_humidity;BME280_pressure;Samples;Min_cycle;Max_cycle;Signal;HPM_P1;HPM_P2
2021/04/20 00:01:37;;;;;;;10.15;7.47;;;13.50;59.00;;;;;;5070333;28;20036;-82
2021/04/20 00:04:04;;;;;;;9.50;7.55;;;13.40;59.00;;;;;;5047823;28;20032;-83
2021/04/20 00:06:33;;;;;;;9.35;7.25;;;13.40;59.10;;;;;;5052435;28;20222;-81
2021/04/20 00:09:00;;;;;;;9.05;7.20;;;13.40;59.10;;;;;;5036252;28;20029;-82
2021/04/20 00:11:26;;;;;;;9.80;7.82;;;13.30;59.10;;;;;;5066770;28;20082;-82
2021/04/20 00:13:52;;;;;;;11.32;8.02;;;13.30;59.10;;;;;;5036934;28;20025;-82
2021/04/20 00:16:17;;;;;;;9.77;7.50;;;13.30;59.10;;;;;;5053743;28;20350;-80
2021/04/20 00:18:44;;;;;;;10.35;8.05;;;13.30;59.20;;;;;;5051701;28;20086;-81
2021/04/20 00:21:10;;;;;;;10.38;7.65;;;13.20;59.20;;;;;;5052798;28;20056;-80
2021/04/20 00:23:35;;;;;;;10.18;8.00;;;13.20;59.20;;;;;;5044440;28;20053;-81
2021/04/20 00:26:01;;;;;;;9.73;7.72;;;13.20;59.20;;;;;;5036043;28;20029;-82
2021/04/20 00:28:28;;;;;;;9.63;7.70;;;13.20;59.30;;;;;;5026786;28;20466;-82
2021/04/20 00:30:54;;;;;;;9.85;7.65;;;13.10;59.20;;;;;;5051281;28;20025;-82
2021/04/20 00:33:21;;;;;;;9.45;7.47;;;13.10;59.20;;;;;;5060879;28;20032;-82
2021/04/20 00:35:47;;;;;;;11.38;8.50;;;13.10;59.30;;;;;;5052573;28;20040;-82
2021/04/20 00:38:13;;;;;;;9.98;7.45;;;13.00;59.30;;;;;;5054664;28;20385;-80
2021/04/20 00:40:40;;;;;;;10.73;7.93;;;13.00;59.30;;;;;;5045247;28;20418;-81
2021/04/20 00:43:07;;;;;;;10.02;7.80;;;13.00;59.30;;;;;;5054856;28;20024;-81
2021/04/20 00:45:34;;;;;;;10.65;8.15;;;13.00;59.40;;;;;;5057977;28;20036;-82
2021/04/20 00:48:02;;;;;;;10.10;7.53;;;13.00;59.30;;;;;;5044800;28;20160;-81
2021/04/20 00:50:31;;;;;;;10.65;8.32;;;12.90;59.40;;;;;;5060884;28;20039;-82
2021/04/20 00:52:57;;;;;;;11.77;8.18;;;12.90;59.40;;;;;;5051855;28;20470;-82
2021/04/20 00:55:25;;;;;;;10.48;8.25;;;12.90;59.40;;;;;;5018500;28;20021;-81
2021/04/20 00:57:51;;;;;;;11.40;8.23;;;12.80;59.40;;;;;;5051802;28;20029;-81
2021/04/20 01:00:26;;;;;;;9.95;8.00;;;12.80;59.40;;;;;;5052823;28;20033;-80
2021/04/20 01:02:52;;;;;;;;;;;12.80;59.40;;;;;;5051375;28;20028;-81
2021/04/20 01:05:21;;;;;;;10.27;7.85;;;12.80;59.40;;;;;;5045942;28;19911;-82
2021/04/20 01:07:49;;;;;;;10.43;8.30;;;12.70;59.90;;;;;;5067777;28;20135;-82
2021/04/20 01:10:16;;;;;;;10.73;8.45;;;12.70;59.40;;;;;;5056318;28;20037;-81
2021/04/20 01:12:43;;;;;;;11.55;8.77;;;12.70;59.50;;;;;;5066268;28;20032;-82
2021/04/20 01:15:11;;;;;;;10.80;8.45;;;12.60;59.50;;;;;;5054176;28;20021;-82
2021/04/20 01:17:37;;;;;;;10.35;7.97;;;12.60;59.50;;;;;;5068992;28;20020;-84
2021/04/20 01:20:09;;;;;;;10.90;8.13;;;12.60;59.60;;;;;;5061152;28;20780;-81
2021/04/20 01:22:39;;;;;;;10.60;8.30;;;12.60;59.70;;;;;;5049431;28;20037;-81
2021/04/20 01:25:07;;;;;;;11.10;8.65;;;12.50;59.60;;;;;;5062566;28;20036;-80
2021/04/20 01:27:34;;;;;;;11.40;8.65;;;12.50;59.70;;;;;;5057407;28;20170;-81
2021/04/20 01:30:01;;;;;;;11.48;8.43;;;12.50;60.40;;;;;;5055604;28;20033;-82
2021/04/20 01:32:27;;;;;;;11.35;8.70;;;12.40;59.80;;;;;;5053693;28;20388;-82
2021/04/20 01:34:55;;;;;;;10.90;8.63;;;12.40;59.90;;;;;;5042731;28;20124;-82
2021/04/20 01:37:22;;;;;;;11.07;8.30;;;12.40;59.80;;;;;;5051517;28;20074;-82
2021/04/20 01:39:48;;;;;;;11.98;9.13;;;12.40;59.80;;;;;;5037851;28;20037;-81
2021/04/20 01:42:15;;;;;;;12.25;9.20;;;12.40;59.80;;;;;;5057421;28;20086;-81
2021/04/20 01:44:42;;;;;;;11.75;9.65;;;12.40;59.90;;;;;;5044613;28;20033;-82
2021/04/20 01:47:09;;;;;;;12.20;9.18;;;12.30;59.80;;;;;;5055675;28;20039;-82
2021/04/20 01:49:35;;;;;;;11.55;8.82;;;12.30;59.90;;;;;;5055971;28;20743;-81
2021/04/20 01:52:02;;;;;;;12.20;9.35;;;12.30;59.90;;;;;;5024452;28;20032;-81
2021/04/20 01:54:28;;;;;;;12.38;9.52;;;12.20;59.90;;;;;;5035486;28;20116;-82
2021/04/20 01:56:55;;;;;;;11.05;8.23;;;12.20;59.90;;;;;;5042600;28;20047;-81
2021/04/20 01:59:22;;;;;;;11.63;9.25;;;12.20;59.90;;;;;;5051611;28;20056;-81
2021/04/20 02:01:49;;;;;;;11.98;9.45;;;12.20;60.00;;;;;;5055031;28;20385;-81
2021/04/20 02:04:15;;;;;;;12.07;8.73;;;12.20;60.00;;;;;;5054845;28;20029;-81
2021/04/20 02:06:42;;;;;;;11.40;8.70;;;12.10;59.90;;;;;;5055425;28;20082;-82
2021/04/20 02:09:09;;;;;;;11.77;9.20;;;12.20;60.00;;;;;;5071669;28;20472;-81
2021/04/20 02:11:35;;;;;;;12.00;9.05;;;12.10;60.00;;;;;;5051056;28;20051;-82
2021/04/20 02:14:02;;;;;;;11.25;9.02;;;12.10;60.10;;;;;;5052258;28;20036;-81
2021/04/20 02:16:28;;;;;;;13.15;9.40;;;12.00;60.00;;;;;;5043574;28;20075;-81
2021/04/20 02:18:57;;;;;;;11.57;8.95;;;12.00;60.00;;;;;;5053654;28;20060;-82
2021/04/20 02:21:23;;;;;;;11.90;9.00;;;12.00;60.10;;;;;;5072178;28;20477;-81
2021/04/20 02:23:50;;;;;;;11.80;9.10;;;12.00;60.10;;;;;;5055918;28;20034;-82
2021/04/20 02:26:29;;;;;;;11.52;8.77;;;11.90;60.00;;;;;;5052407;28;20029;-82
2021/04/20 02:28:59;;;;;;;11.43;9.15;;;11.90;60.20;;;;;;5054751;28;20029;-82
2021/04/20 02:31:26;;;;;;;12.05;8.63;;;11.90;60.10;;;;;;5052745;28;20373;-80
2021/04/20 02:33:55;;;;;;;11.88;8.82;;;11.90;60.20;;;;;;5049241;28;20043;-81
2021/04/20 02:36:22;;;;;;;11.88;8.90;;;11.80;60.20;;;;;;5049550;28;20024;-82
2021/04/20 02:38:49;;;;;;;11.35;8.80;;;11.80;60.20;;;;;;5050465;28;20024;-82
2021/04/20 02:41:18;;;;;;;12.75;9.32;;;11.80;60.20;;;;;;5037933;28;20131;-84
2021/04/20 02:43:45;;;;;;;11.55;8.88;;;11.80;60.20;;;;;;5046412;28;20047;-82
2021/04/20 02:46:13;;;;;;;12.13;8.57;;;11.80;60.30;;;;;;5036038;28;20122;-82
2021/04/20 02:48:39;;;;;;;11.70;9.35;;;11.70;60.20;;;;;;5050689;28;20496;-82
2021/04/20 02:51:10;;;;;;;12.77;10.10;;;11.70;60.20;;;;;;5056188;28;20125;-83
2021/04/20 02:53:36;;;;;;;12.70;9.02;;;11.70;60.30;;;;;;5054749;28;20024;-82
2021/04/20 02:56:02;;;;;;;12.15;9.30;;;11.70;60.30;;;;;;5062806;28;20037;-82
2021/04/20 02:58:29;;;;;;;12.50;9.52;;;11.60;60.30;;;;;;5046703;28;20029;-82
2021/04/20 03:01:02;;;;;;;12.32;9.60;;;11.60;60.30;;;;;;5052553;28;20055;-81
2021/04/20 03:03:28;;;;;;;12.73;9.27;;;11.60;60.40;;;;;;5047367;28;20029;-82
2021/04/20 03:05:56;;;;;;;11.98;9.30;;;11.60;60.40;;;;;;5052734;28;20025;-82
2021/04/20 03:08:22;;;;;;;11.88;8.95;;;11.50;60.40;;;;;;5051559;28;20094;-82
2021/04/20 03:10:49;;;;;;;14.00;9.88;;;11.50;60.30;;;;;;5041451;28;20025;-82
2021/04/20 03:13:16;;;;;;;11.98;9.27;;;11.50;60.40;;;;;;5070477;28;20538;-81
2021/04/20 03:15:42;;;;;;;12.25;8.63;;;11.50;60.40;;;;;;5052103;28;20020;-82
2021/04/20 03:18:10;;;;;;;11.77;9.15;;;11.40;60.30;;;;;;5052053;28;20112;-82
2021/04/20 03:20:35;;;;;;;11.38;8.88;;;11.40;60.30;;;;;;5049813;28;20075;-82
2021/04/20 03:23:03;;;;;;;11.77;9.27;;;11.40;60.40;;;;;;5036625;28;20033;-81
2021/04/20 03:25:34;;;;;;;12.50;9.52;;;11.40;60.40;;;;;;5061205;28;20028;-81
2021/04/20 03:28:00;;;;;;;12.63;9.15;;;11.40;60.40;;;;;;5046314;28;20051;-81
2021/04/20 03:30:31;;;;;;;11.73;9.20;;;11.30;60.40;;;;;;5065030;28;20410;-81
2021/04/20 03:33:17;;;;;;;12.35;9.50;;;11.30;61.10;;;;;;5054474;28;20020;-81
2021/04/20 03:36:02;;;;;;;12.20;9.20;;;11.20;60.50;;;;;;5054985;28;20039;-82
2021/04/20 03:38:33;;;;;;;;;;;11.20;60.50;;;;;;5053590;28;20028;-81
2021/04/20 03:41:04;;;;;;;10.85;7.82;;;11.20;60.30;;;;;;5056002;28;19913;-81
2021/04/20 03:43:32;;;;;;;11.43;9.10;;;11.20;60.30;;;;;;5049867;28;20073;-82
2021/04/20 03:46:20;;;;;;;11.60;8.55;;;11.10;60.40;;;;;;5044654;28;20167;-82
2021/04/20 03:48:54;;;;;;;12.07;9.38;;;11.10;60.60;;;;;;5070925;28;20025;-82
2021/04/20 03:51:26;;;;;;;10.77;8.47;;;11.10;60.60;;;;;;5047110;28;20040;-83
2021/04/20 03:53:53;;;;;;;11.00;8.27;;;11.10;60.60;;;;;;5056554;28;20024;-81
2021/04/20 03:56:24;;;;;;;12.27;9.63;;;11.10;60.60;;;;;;5047812;28;20024;-81
2021/04/20 03:58:53;;;;;;;10.73;8.27;;;11.00;60.60;;;;;;5069817;28;20028;-83
2021/04/20 04:01:20;;;;;;;13.45;9.27;;;11.00;60.60;;;;;;5049542;28;20037;-82
2021/04/20 04:03:46;;;;;;;12.02;8.82;;;11.00;60.60;;;;;;5040943;28;20033;-82
2021/04/20 04:06:14;;;;;;;12.75;9.48;;;11.00;60.70;;;;;;5053787;28;20048;-82
2021/04/20 04:08:43;;;;;;;12.23;8.95;;;10.90;60.70;;;;;;5023102;28;20116;-82
2021/04/20 04:11:11;;;;;;;12.32;9.68;;;10.90;60.70;;;;;;5046076;28;20476;-82
2021/04/20 04:13:41;;;;;;;11.60;9.02;;;10.90;60.70;;;;;;5051344;28;20127;-81
2021/04/20 04:16:09;;;;;;;11.68;8.95;;;10.90;60.70;;;;;;5045874;28;20021;-81
2021/04/20 04:18:36;;;;;;;11.40;8.77;;;10.90;60.70;;;;;;5060541;28;20068;-82
2021/04/20 04:21:05;;;;;;;10.82;8.00;;;10.80;60.70;;;;;;5059141;28;20435;-81
2021/04/20 04:23:40;;;;;;;11.52;8.60;;;10.80;60.70;;;;;;5053023;28;20123;-80
2021/04/20 04:26:11;;;;;;;9.95;8.05;;;10.80;60.80;;;;;;5047084;28;20468;-82
2021/04/20 04:28:38;;;;;;;10.70;7.82;;;10.80;60.80;;;;;;5051275;28;20086;-82
2021/04/20 04:31:06;;;;;;;12.27;8.73;;;10.70;60.70;;;;;;5052246;28;20032;-81
2021/04/20 04:33:38;;;;;;;12.73;9.18;;;10.70;60.80;;;;;;5064210;28;20481;-81
2021/04/20 04:36:05;;;;;;;11.77;8.80;;;10.70;60.80;;;;;;5052293;28;20051;-81
2021/04/20 04:38:32;;;;;;;10.60;8.45;;;10.70;60.80;;;;;;5057539;28;20028;-81
2021/04/20 04:40:59;;;;;;;12.32;8.73;;;10.70;60.90;;;;;;5051463;28;20029;-81
2021/04/20 04:43:27;;;;;;;12.32;9.25;;;10.70;60.90;;;;;;5070145;28;20123;-79
2021/04/20 04:45:57;;;;;;;12.07;8.95;;;10.60;60.90;;;;;;5063792;28;20048;-84
2021/04/20 04:48:27;;;;;;;11.80;9.20;;;10.60;60.90;;;;;;5059385;28;20021;-86
2021/04/20 04:50:54;;;;;;;13.05;9.32;;;10.60;60.90;;;;;;5039261;28;20378;-88
2021/04/20 04:53:21;;;;;;;12.35;9.55;;;10.60;60.90;;;;;;5057154;28;20020;-87
2021/04/20 04:55:48;;;;;;;11.88;9.13;;;10.60;60.90;;;;;;5038618;28;20032;-88
2021/04/20 04:58:16;;;;;;;11.90;9.02;;;10.50;60.90;;;;;;5052738;28;20036;-87
2021/04/20 05:00:43;;;;;;;12.85;9.60;;;10.50;60.90;;;;;;5031610;28;20140;-87
2021/04/20 05:03:09;;;;;;;11.95;8.93;;;10.50;61.00;;;;;;5070867;28;20048;-88
2021/04/20 05:05:37;;;;;;;13.48;9.85;;;10.50;60.90;;;;;;5039118;28;20040;-84
2021/04/20 05:08:03;;;;;;;12.45;9.65;;;10.50;61.00;;;;;;5060747;28;20060;-84
2021/04/20 05:10:29;;;;;;;11.40;8.88;;;10.40;61.00;;;;;;5057456;28;20039;-85
2021/04/20 05:12:56;;;;;;;11.77;8.52;;;10.40;61.00;;;;;;5054682;28;20028;-85
2021/04/20 05:15:25;;;;;;;12.50;9.38;;;10.40;61.10;;;;;;5012768;28;20028;-85
2021/04/20 05:17:51;;;;;;;13.02;9.85;;;10.40;61.10;;;;;;5053961;28;20062;-84
2021/04/20 05:20:19;;;;;;;12.18;9.43;;;10.40;61.10;;;;;;5070959;28;20052;-82
2021/04/20 05:22:47;;;;;;;12.20;9.63;;;10.40;61.10;;;;;;5047587;28;20059;-83
2021/04/20 05:25:15;;;;;;;11.88;8.93;;;10.40;61.10;;;;;;5055975;28;20420;-83
2021/04/20 05:27:43;;;;;;;13.32;10.27;;;10.30;61.10;;;;;;5052174;28;20040;-83
2021/04/20 05:30:09;;;;;;;12.48;8.85;;;10.30;61.10;;;;;;5043437;28;20090;-86
2021/04/20 05:32:40;;;;;;;13.07;9.38;;;10.30;61.10;;;;;;5055538;28;20033;-85
2021/04/20 05:35:10;;;;;;;12.45;9.32;;;10.30;61.10;;;;;;5046389;28;20052;-86
2021/04/20 05:37:41;;;;;;;13.18;9.57;;;10.30;61.10;;;;;;5070005;28;20060;-84
2021/04/20 05:40:19;;;;;;;12.77;9.13;;;10.30;61.20;;;;;;5055332;28;20537;-84
2021/04/20 05:42:45;;;;;;;12.55;9.48;;;10.30;61.20;;;;;;5070528;28;20036;-84
2021/04/20 05:45:15;;;;;;;12.32;9.05;;;10.30;61.10;;;;;;5057828;28;20021;-85
2021/04/20 05:47:46;;;;;;;13.02;9.48;;;10.20;61.20;;;;;;5057751;28;20035;-86
2021/04/20 05:50:18;;;;;;;13.10;9.75;;;10.20;61.20;;;;;;5061679;28;20094;-85
2021/04/20 05:52:44;;;;;;;11.77;9.00;;;10.20;61.20;;;;;;5061327;28;20489;-86
2021/04/20 05:55:10;;;;;;;12.95;9.35;;;10.20;61.20;;;;;;5054560;28;20032;-86
2021/04/20 05:57:36;;;;;;;12.05;8.98;;;10.20;61.20;;;;;;5048672;28;20036;-85
2021/04/20 06:00:07;;;;;;;12.48;9.23;;;10.20;61.20;;;;;;5050041;28;20067;-85
2021/04/20 06:02:39;;;;;;;13.07;9.63;;;10.20;61.30;;;;;;5057403;28;20033;-86
2021/04/20 06:05:14;;;;;;;13.50;9.77;;;10.20;61.20;;;;;;5038276;28;20551;-88
2021/04/20 06:07:44;;;;;;;12.05;9.00;;;10.20;61.30;;;;;;5063929;28;20033;-83
2021/04/20 06:10:11;;;;;;;12.25;9.15;;;10.20;61.30;;;;;;5069367;28;20027;-82
2021/04/20 06:12:38;;;;;;;12.57;9.65;;;10.20;61.30;;;;;;5056426;28;20029;-82
2021/04/20 06:15:06;;;;;;;13.57;10.27;;;10.20;61.30;;;;;;5034580;28;20063;-83
2021/04/20 06:17:39;;;;;;;13.55;9.77;;;10.20;61.40;;;;;;5059680;28;20016;-82
2021/04/20 06:20:08;;;;;;;12.18;9.10;;;10.20;61.40;;;;;;5048156;28;20041;-83
2021/04/20 06:22:35;;;;;;;12.65;9.20;;;10.20;61.40;;;;;;5017805;28;20029;-82
2021/04/20 06:25:01;;;;;;;13.30;9.82;;;10.20;61.40;;;;;;5008808;28;20045;-82
2021/04/20 06:27:28;;;;;;;13.30;10.20;;;10.20;61.40;;;;;;5020329;28;20025;-82
2021/04/20 06:29:54;;;;;;;12.63;8.90;;;10.20;61.50;;;;;;5020899;28;20041;-82
2021/04/20 06:32:20;;;;;;;12.95;9.82;;;10.20;61.50;;;;;;5007461;28;20054;-82
2021/04/20 06:34:46;;;;;;;13.40;9.77;;;10.20;61.50;;;;;;4993381;28;20053;-83
2021/04/20 06:37:13;;;;;;;13.63;9.85;;;10.20;62.20;;;;;;5012738;28;20033;-83
2021/04/20 06:39:39;;;;;;;12.32;9.20;;;10.20;61.60;;;;;;5004661;28;20391;-82
2021/04/20 06:42:10;;;;;;;14.45;10.50;;;10.20;61.60;;;;;;5016427;28;20034;-83
2021/04/20 06:44:50;;;;;;;13.55;9.57;;;10.30;62.40;;;;;;5016829;28;20029;-83
2021/04/20 06:47:19;;;;;;;12.38;9.38;;;10.30;61.80;;;;;;5018952;28;20028;-82
2021/04/20 06:49:55;;;;;;;13.25;9.88;;;10.30;61.70;;;;;;5033700;28;20105;-83
2021/04/20 06:52:27;;;;;;;13.55;10.27;;;10.20;61.80;;;;;;5016987;28;20398;-83
2021/04/20 06:55:09;;;;;;;13.10;9.68;;;10.20;61.80;;;;;;5015325;28;20473;-83
2021/04/20 06:57:52;;;;;;;12.07;9.60;;;10.30;61.90;;;;;;5028413;28;20029;-81
2021/04/20 07:00:27;;;;;;;13.15;10.18;;;10.30;61.90;;;;;;5030814;28;20025;-83
2021/04/20 07:03:07;;;;;;;12.82;10.18;;;10.30;61.90;;;;;;5016419;28;20028;-82
2021/04/20 07:05:47;;;;;;;14.10;10.40;;;10.30;62.00;;;;;;5025704;28;20466;-81
2021/04/20 07:08:42;;;;;;;13.45;10.50;;;10.30;62.10;;;;;;5017682;28;20465;-82
2021/04/20 07:11:12;;;;;;;14.65;10.23;;;10.40;62.30;;;;;;5027302;28;20029;-82
2021/04/20 07:13:41;;;;;;;14.73;10.30;;;10.40;62.20;;;;;;5018421;28;20104;-82
2021/04/20 07:16:12;;;;;;;14.18;10.32;;;10.40;62.20;;;;;;5022761;28;20484;-83
2021/04/20 07:19:00;;;;;;;13.20;9.77;;;10.40;62.30;;;;;;5006804;28;20367;-85
2021/04/20 07:22:11;;;;;;;12.32;9.98;;;10.40;62.30;;;;;;5044547;28;20059;-83
2021/04/20 07:24:58;;;;;;;14.45;10.55;;;10.50;62.50;;;;;;5005770;28;20095;-82
2021/04/20 07:28:01;;;;;;;13.13;9.65;;;10.50;62.40;;;;;;5038167;28;20052;-84
2021/04/20 07:30:33;;;;;;;13.38;10.45;;;10.50;62.50;;;;;;5011367;28;20029;-83
2021/04/20 07:33:36;;;;;;;12.80;9.95;;;10.50;62.40;;;;;;5000564;28;20363;-83
2021/04/20 07:36:32;;;;;;;15.63;11.45;;;10.50;62.70;;;;;;5017816;28;20025;-87
2021/04/20 07:39:19;;;;;;;14.90;11.00;;;10.50;62.70;;;;;;5018899;28;20021;-83
2021/04/20 07:41:53;;;;;;;14.70;10.27;;;10.60;62.80;;;;;;4999561;28;20087;-84
2021/04/20 07:44:44;;;;;;;14.77;11.40;;;10.60;62.80;;;;;;5029685;28;20048;-83
2021/04/20 07:47:15;;;;;;;14.07;10.80;;;10.60;62.80;;;;;;5026155;28;20128;-83
2021/04/20 07:49:47;;;;;;;14.38;10.80;;;10.60;62.70;;;;;;5048023;28;20044;-83
2021/04/20 07:52:17;;;;;;;14.93;10.80;;;10.70;62.80;;;;;;5016567;28;20030;-82
2021/04/20 07:54:57;;;;;;;15.40;11.25;;;10.70;62.80;;;;;;5014347;28;20029;-83
2021/04/20 07:57:35;;;;;;;15.38;10.88;;;10.80;63.00;;;;;;5026368;28;20107;-82
2021/04/20 08:00:13;;;;;;;16.45;11.85;;;10.80;63.00;;;;;;5008243;28;20036;-83
2021/04/20 08:02:48;;;;;;;15.88;11.82;;;10.80;63.00;;;;;;5031126;28;20029;-80
2021/04/20 08:05:36;;;;;;;16.87;12.00;;;10.80;62.90;;;;;;5018471;28;20036;-82
2021/04/20 08:08:14;;;;;;;16.65;11.60;;;10.90;63.00;;;;;;5014836;28;20025;-83
2021/04/20 08:11:03;;;;;;;14.45;11.38;;;10.90;62.90;;;;;;4999398;28;20017;-79
2021/04/20 08:13:42;;;;;;;14.63;10.93;;;11.00;63.00;;;;;;5014633;28;20032;-82
2021/04/20 08:16:25;;;;;;;15.27;11.68;;;11.00;63.00;;;;;;5004879;28;20025;-79
2021/04/20 08:18:59;;;;;;;14.02;10.45;;;11.00;62.90;;;;;;5015502;28;20033;-81
2021/04/20 08:21:28;;;;;;;15.98;11.55;;;11.10;62.90;;;;;;5033429;28;20135;-81
2021/04/20 08:23:56;;;;;;;14.65;10.88;;;11.10;62.70;;;;;;5006575;28;20377;-82
2021/04/20 08:26:26;;;;;;;15.02;11.70;;;11.20;62.70;;;;;;5014786;28;20029;-80
2021/04/20 08:29:09;;;;;;;16.20;11.80;;;11.20;62.70;;;;;;5015774;28;20055;-81
2021/04/20 08:31:49;;;;;;;14.18;10.98;;;11.30;62.80;;;;;;5014952;28;20327;-81
2021/04/20 08:34:41;;;;;;;14.82;11.30;;;11.40;62.60;;;;;;5032059;28;20028;-81
2021/04/20 08:37:23;;;;;;;15.90;11.35;;;11.50;62.60;;;;;;5006231;28;20025;-80
2021/04/20 08:40:08;;;;;;;14.40;10.75;;;11.50;62.50;;;;;;5050569;28;20017;-82
2021/04/20 08:42:47;;;;;;;;;;;11.60;63.30;;;;;;5018747;28;20059;-81
2021/04/20 08:45:49;;;;;;;13.75;10.18;;;11.60;62.30;;;;;;5014729;28;19932;-82
2021/04/20 08:48:29;;;;;;;12.95;9.48;;;11.70;62.30;;;;;;5028432;28;20171;-81
2021/04/20 08:51:00;;;;;;;13.05;9.95;;;11.80;62.30;;;;;;5002382;28;20098;-81
2021/04/20 08:54:19;;;;;;;13.95;10.15;;;11.90;62.50;;;;;;5028527;28;20140;-82
2021/04/20 08:57:03;;;;;;;13.25;9.82;;;12.00;62.70;;;;;;5023281;28;20025;-81
2021/04/20 08:59:52;;;;;;;12.07;9.32;;;12.10;62.50;;;;;;5011468;28;20036;-80
2021/04/20 09:02:42;;;;;;;14.73;10.35;;;12.20;62.40;;;;;;5011943;28;20021;-84
2021/04/20 09:05:14;;;;;;;12.80;9.82;;;12.30;62.60;;;;;;5030591;28;20029;-80
2021/04/20 09:07:59;;;;;;;12.65;9.52;;;12.40;62.50;;;;;;5027968;28;20390;-80
2021/04/20 09:10:28;;;;;;;12.25;9.65;;;12.50;62.60;;;;;;5019717;28;20099;-81
2021/04/20 09:13:04;;;;;;;12.90;9.73;;;12.60;62.40;;;;;;5047208;28;20029;-82
2021/04/20 09:15:35;;;;;;;12.45;9.27;;;12.70;62.40;;;;;;5019616;28;20057;-81
2021/04/20 09:18:04;;;;;;;12.98;9.35;;;12.80;62.30;;;;;;5008005;28;20038;-82
2021/04/20 09:20:49;;;;;;;11.95;9.52;;;12.90;62.30;;;;;;5027855;28;20078;-80
2021/04/20 09:23:34;;;;;;;11.98;8.88;;;13.00;62.30;;;;;;5032736;28;20633;-82
2021/04/20 09:26:06;;;;;;;11.70;8.43;;;13.10;62.20;;;;;;5018973;28;20393;-82
2021/04/20 09:28:37;;;;;;;10.93;8.57;;;13.20;62.00;;;;;;5037959;28;20033;-82
2021/04/20 09:31:16;;;;;;;11.48;8.68;;;13.30;62.00;;;;;;5017266;28;20030;-79
2021/04/20 09:33:53;;;;;;;11.77;8.23;;;13.40;62.10;;;;;;5043283;28;20073;-79
2021/04/20 09:36:21;;;;;;;10.90;8.20;;;13.50;62.00;;;;;;5035329;28;20025;-79
2021/04/20 09:38:49;;;;;;;10.95;8.32;;;13.70;62.00;;;;;;5011877;28;20070;-80
2021/04/20 09:41:28;;;;;;;10.32;8.05;;;13.80;62.00;;;;;;5020615;28;20112;-79
2021/04/20 09:44:06;;;;;;;11.10;8.65;;;13.90;62.00;;;;;;5016693;28;20057;-81
2021/04/20 09:46:50;;;;;;;10.68;8.18;;;14.00;62.10;;;;;;5017958;28;20439;-81
2021/04/20 09:49:46;;;;;;;10.37;7.67;;;14.10;62.00;;;;;;5010828;28;20115;-80
2021/04/20 09:52:16;;;;;;;9.55;7.15;;;14.20;62.00;;;;;;5035555;28;20033;-82
2021/04/20 09:55:06;;;;;;;10.05;7.65;;;14.30;61.90;;;;;;5020332;28;20056;-81
2021/04/20 09:57:42;;;;;;;10.20;7.78;;;14.50;62.10;;;;;;5001151;28;20030;-80
2021/04/20 10:00:13;;;;;;;10.43;7.97;;;14.60;62.00;;;;;;5046089;28;20474;-81
2021/04/20 10:02:57;;;;;;;9.85;7.50;;;14.70;62.00;;;;;;5035995;28;20029;-81
2021/04/20 10:05:36;;;;;;;9.82;7.97;;;14.80;62.10;;;;;;5019232;28;20025;-82
2021/04/20 10:08:22;;;;;;;10.35;7.63;;;15.00;62.00;;;;;;5015615;28;20032;-84
2021/04/20 10:11:03;;;;;;;10.40;8.10;;;15.10;62.30;;;;;;5009428;28;20082;-82
2021/04/20 10:13:48;;;;;;;10.18;7.88;;;15.20;62.10;;;;;;5038252;28;20033;-83
2021/04/20 10:16:17;;;;;;;10.43;7.40;;;15.30;61.90;;;;;;5020685;28;20568;-83
2021/04/20 10:18:47;;;;;;;9.73;7.50;;;15.40;61.90;;;;;;5018312;28;20097;-80
2021/04/20 10:21:27;;;;;;;10.27;8.05;;;15.50;61.90;;;;;;5026152;28;20081;-81
2021/04/20 10:24:19;;;;;;;9.20;7.10;;;15.70;62.00;;;;;;5036891;28;20124;-84
2021/04/20 10:27:05;;;;;;;10.02;6.63;;;15.80;62.10;;;;;;5063710;28;20446;-80
2021/04/20 10:29:41;;;;;;;9.25;7.35;;;15.90;62.00;;;;;;5056346;28;20039;-82
2021/04/20 10:32:19;;;;;;;9.23;7.05;;;16.10;62.10;;;;;;5070566;28;20039;-83
2021/04/20 10:34:48;;;;;;;9.13;6.90;;;16.20;62.20;;;;;;5072953;28;20383;-82
2021/04/20 10:37:15;;;;;;;8.68;6.80;;;16.30;62.00;;;;;;5051351;28;20381;-83
2021/04/20 10:39:46;;;;;;;9.40;7.22;;;16.40;61.90;;;;;;5073089;28;20033;-83
2021/04/20 10:42:14;;;;;;;9.15;6.85;;;16.50;61.80;;;;;;5073316;28;20037;-83
2021/04/20 10:44:43;;;;;;;8.48;6.82;;;16.60;61.80;;;;;;5052996;28;20477;-83
2021/04/20 10:47:10;;;;;;;9.63;7.25;;;16.80;61.90;;;;;;5036868;28;20474;-82
2021/04/20 10:49:36;;;;;;;8.77;6.60;;;16.90;62.00;;;;;;5066495;28;20086;-83
2021/04/20 10:52:09;;;;;;;9.38;7.35;;;17.00;62.00;;;;;;5021421;28;20421;-83
2021/04/20 10:54:41;;;;;;;7.97;6.03;;;17.10;62.10;;;;;;5054509;28;20112;-84
2021/04/20 10:57:07;;;;;;;9.38;7.38;;;17.20;62.00;;;;;;5048966;28;20059;-83
2021/04/20 10:59:39;;;;;;;8.65;6.70;;;17.30;61.90;;;;;;5038836;28;20033;-83
2021/04/20 11:02:17;;;;;;;7.70;5.88;;;17.40;62.00;;;;;;5053179;28;20024;-83
2021/04/20 11:04:44;;;;;;;8.88;6.47;;;17.50;61.90;;;;;;5046901;28;20459;-84
2021/04/20 11:07:29;;;;;;;7.82;6.20;;;17.60;61.90;;;;;;5042390;28;20025;-83
2021/04/20 11:10:03;;;;;;;8.27;6.53;;;17.70;62.10;;;;;;5059909;28;20044;-84
2021/04/20 11:12:30;;;;;;;7.53;5.90;;;17.80;61.90;;;;;;5045243;28;20462;-86
2021/04/20 11:14:57;;;;;;;7.22;5.63;;;18.00;61.80;;;;;;5058678;28;20029;-84
2021/04/20 11:17:45;;;;;;;7.53;5.65;;;18.10;61.90;;;;;;5035777;28;20028;-87
2021/04/20 11:20:17;;;;;;;7.13;5.35;;;18.10;62.00;;;;;;5069758;28;20503;-84
2021/04/20 11:22:50;;;;;;;6.60;5.50;;;18.20;61.90;;;;;;5061150;28;20044;-81
2021/04/20 11:25:24;;;;;;;7.13;5.80;;;18.40;62.10;;;;;;5072686;28;20033;-81
2021/04/20 11:27:57;;;;;;;6.75;5.47;;;18.50;62.20;;;;;;5053375;28;20021;-81
2021/04/20 11:30:32;;;;;;;7.50;6.05;;;18.60;62.10;;;;;;5071571;28;20036;-80
2021/04/20 11:33:11;;;;;;;8.10;5.80;;;18.70;62.40;;;;;;5065975;28;20025;-80
2021/04/20 11:35:45;;;;;;;7.40;5.90;;;18.80;62.40;;;;;;5054480;28;20032;-81
2021/04/20 11:38:15;;;;;;;7.40;5.35;;;18.90;62.50;;;;;;5070571;28;20024;-80
2021/04/20 11:40:49;;;;;;;7.75;5.78;;;19.00;62.40;;;;;;5039993;28;20033;-81
2021/04/20 11:43:15;;;;;;;7.63;5.78;;;19.00;62.40;;;;;;5053744;28;20025;-81
2021/04/20 11:45:44;;;;;;;7.13;5.68;;;19.10;62.20;;;;;;5046399;28;20028;-81
2021/04/20 11:48:14;;;;;;;6.78;5.65;;;19.20;62.40;;;;;;5055015;28;20039;-83
2021/04/20 11:50:58;;;;;;;6.90;5.40;;;19.30;62.40;;;;;;5062231;28;20555;-81
2021/04/20 11:53:26;;;;;;;6.75;5.47;;;19.40;62.60;;;;;;5050403;28;20465;-82
2021/04/20 11:56:00;;;;;;;7.20;5.20;;;19.50;62.60;;;;;;5062674;28;20029;-81
2021/04/20 11:58:43;;;;;;;6.50;5.45;;;19.60;62.70;;;;;;5053316;28;20036;-81
2021/04/20 12:01:13;;;;;;;6.75;5.32;;;19.70;62.80;;;;;;5048325;28;20068;-81
2021/04/20 12:03:54;;;;;;;6.65;5.38;;;19.70;62.70;;;;;;5071016;28;20039;-83
2021/04/20 12:06:24;;;;;;;6.40;5.18;;;19.80;62.90;;;;;;5051893;28;20025;-82
2021/04/20 12:08:57;;;;;;;7.03;5.28;;;19.90;62.80;;;;;;5038444;28;20035;-85
2021/04/20 12:11:28;;;;;;;6.55;5.35;;;20.00;63.00;;;;;;5018536;28;20469;-83
2021/04/20 12:13:55;;;;;;;6.68;5.57;;;20.00;62.90;;;;;;5048306;28;20119;-82
2021/04/20 12:16:22;;;;;;;6.00;4.57;;;20.10;63.00;;;;;;5042997;28;20392;-82
2021/04/20 12:18:51;;;;;;;6.90;5.57;;;20.10;63.00;;;;;;5066794;28;20491;-83
2021/04/20 12:21:26;;;;;;;6.70;5.32;;;20.20;63.00;;;;;;5071609;28;20025;-81
2021/04/20 12:23:59;;;;;;;;;;;20.30;63.10;;;;;;5057787;28;20059;-82
2021/04/20 12:26:31;;;;;;;6.65;4.85;;;20.30;62.70;;;;;;5052543;28;19915;-82
2021/04/20 12:29:13;;;;;;;6.25;4.78;;;20.40;62.60;;;;;;5052903;28;20155;-82
2021/04/20 12:31:40;;;;;;;5.53;4.85;;;20.50;62.90;;;;;;5059073;28;20036;-83
2021/04/20 12:34:07;;;;;;;6.70;5.25;;;20.50;62.60;;;;;;5071240;28;20052;-83
2021/04/20 12:36:40;;;;;;;7.00;5.30;;;20.60;62.60;;;;;;5038114;28;20051;-87
2021/04/20 12:39:11;;;;;;;5.93;5.10;;;20.60;62.60;;;;;;5066268;28;20017;-86
2021/04/20 12:41:39;;;;;;;6.88;5.30;;;20.70;62.60;;;;;;5058378;28;20033;-87
2021/04/20 12:44:10;;;;;;;6.85;5.72;;;20.80;62.50;;;;;;5045359;28;20032;-83
2021/04/20 12:46:38;;;;;;;7.25;5.60;;;20.90;62.50;;;;;;5070386;28;20094;-82
2021/04/20 12:49:07;;;;;;;6.82;5.63;;;20.90;62.60;;;;;;5043407;28;20454;-83
2021/04/20 12:51:38;;;;;;;6.75;5.18;;;20.90;62.60;;;;;;5056006;28;20100;-83
2021/04/20 12:54:08;;;;;;;6.30;5.28;;;21.00;62.60;;;;;;5045799;28;20063;-82
2021/04/20 12:56:37;;;;;;;6.47;5.35;;;21.10;62.90;;;;;;5055571;28;20032;-82
2021/04/20 12:59:08;;;;;;;7.20;5.63;;;21.20;62.90;;;;;;5056167;28;20032;-81
2021/04/20 13:01:34;;;;;;;6.65;5.50;;;21.20;62.90;;;;;;5056690;28;20495;-82
2021/04/20 13:04:01;;;;;;;6.18;5.28;;;21.30;62.90;;;;;;5054896;28;20365;-83